This is the latest recevied weather packets stored in our database for station/object KC1OEK-13. If no packets are shown the sender has not sent any weather packets the latest 10 day(s).
| Time | Temp. | Humidity | Pressure | Rain* | Wind** | Luminosity | Snow |
|---|---|---|---|---|---|---|---|
| 1777908300 | 17.78° C | 38% | 1012.9 hPa | 0 mm | - | 707 W/m² | - |
| 1777907996 | 17.22° C | 38% | 1012.8 hPa | 0 mm | - | 704 W/m² | - |
| 1777907692 | 17.22° C | 37% | 1012.7 hPa | 0 mm | - | 705 W/m² | - |
| 1777907084 | 17.22° C | 37% | 1013 hPa | 0 mm | - | 654 W/m² | - |
| 1777906782 | 17.22° C | 37% | 1012.9 hPa | 0 mm | - | 618 W/m² | - |
| 1777906479 | 17.22° C | 38% | 1012.9 hPa | 0 mm | - | 610 W/m² | - |
| 1777906175 | 17.22° C | 36% | 1013.2 hPa | 0 mm | - | 706 W/m² | - |
| 1777905872 | 17.22° C | 38% | 1013 hPa | 0 mm | - | 671 W/m² | - |
| 1777905568 | 17.22° C | 37% | 1013.1 hPa | 0 mm | - | 649 W/m² | - |
| 1777905265 | 17.22° C | 43% | 1013.3 hPa | 0 mm | - | 625 W/m² | - |
| 1777904962 | 16.67° C | 41% | 1013.4 hPa | 0 mm | - | 619 W/m² | - |
| 1777904357 | 16.67° C | 37% | 1013.2 hPa | 0 mm | - | 597 W/m² | - |
| 1777904054 | 16.67° C | 39% | 1013.1 hPa | 0 mm | - | 585 W/m² | - |
| 1777903750 | 16.11° C | 38% | 1013.2 hPa | 0 mm | - | 573 W/m² | - |
| 1777901932 | 15° C | 44% | 1013.6 hPa | 0 mm | - | 499 W/m² | - |
| 1777901629 | 15° C | 44% | 1013.5 hPa | 0 mm | - | 485 W/m² | - |
| 1777901326 | 15° C | 44% | 1013.7 hPa | 0 mm | - | 471 W/m² | - |
| 1777901024 | 14.44° C | 47% | 1013.5 hPa | 0 mm | - | 456 W/m² | - |
| 1777900721 | 14.44° C | 46% | 1013.6 hPa | 0 mm | - | 442 W/m² | - |
| 1777900418 | 13.89° C | 49% | 1013.9 hPa | 0 mm | - | 427 W/m² | - |
| 1777900115 | 13.89° C | 47% | 1014.1 hPa | 0 mm | - | 414 W/m² | - |
| 1777899812 | 13.33° C | 51% | 1014 hPa | 0 mm | - | 398 W/m² | - |
| 1777899508 | 13.33° C | 49% | 1014 hPa | 0 mm | - | 385 W/m² | - |
| 1777898298 | 11.67° C | 55% | 1014.4 hPa | 0 mm | - | 325 W/m² | - |
| 1777897995 | 11.67° C | 56% | 1014.3 hPa | 0 mm | - | 311 W/m² | - |
* Rain latest hour (hover to see other rain measurements)
** Current wind speed in m/s (hover to see current wind gust speed)